Time;durP1;ratioP1;P1;durP2;ratioP2;P2;SDS_P1;SDS_P2;PMS_P1;PMS_P2;Temp;Humidity;BMP_temperature;BMP_pressure;BME280_temperature;BME280_humidity;BME280_pressure;Samples;Min_cycle;Max_cycle;Signal;HPM_P1;HPM_P2
2023/08/04 00:01:52;;;;;;;3.60;2.28;;;16.10;99.90;;;;;;4941706;29;20187;-84
2023/08/04 00:04:18;;;;;;;1.92;1.63;;;16.10;99.90;;;;;;4941463;29;20274;-84
2023/08/04 00:06:43;;;;;;;2.30;2.10;;;16.00;99.90;;;;;;4957225;29;20188;-85
2023/08/04 00:09:09;;;;;;;8.77;2.47;;;16.00;99.90;;;;;;4959311;29;20625;-84
2023/08/04 00:11:35;;;;;;;5.28;2.50;;;15.90;99.90;;;;;;4942232;29;20179;-83
2023/08/04 00:14:00;;;;;;;2.90;1.75;;;15.90;99.90;;;;;;4969712;29;20187;-82
2023/08/04 00:16:26;;;;;;;4.50;2.15;;;15.80;99.90;;;;;;4982651;28;20179;-85
2023/08/04 00:18:52;;;;;;;3.20;1.80;;;15.70;99.90;;;;;;4936813;29;20551;-84
2023/08/04 00:21:17;;;;;;;2.50;1.85;;;15.70;99.90;;;;;;4958799;29;20221;-85
2023/08/04 00:23:43;;;;;;;3.20;2.42;;;15.70;99.90;;;;;;4957140;29;20217;-86
2023/08/04 00:26:08;;;;;;;6.57;2.75;;;15.60;99.90;;;;;;4925550;29;20186;-85
2023/08/04 00:28:34;;;;;;;4.43;2.17;;;15.60;99.90;;;;;;4940817;29;20621;-85
2023/08/04 00:31:00;;;;;;;6.07;2.67;;;15.50;99.90;;;;;;4940842;29;20218;-85
2023/08/04 00:33:26;;;;;;;5.10;2.35;;;15.50;99.90;;;;;;4956973;29;20206;-85
2023/08/04 00:35:51;;;;;;;4.68;2.22;;;15.50;99.90;;;;;;4958084;29;20186;-85
2023/08/04 00:38:17;;;;;;;3.78;2.15;;;15.60;99.90;;;;;;4957943;29;20184;-85
2023/08/04 00:40:43;;;;;;;3.78;2.35;;;15.50;99.90;;;;;;4941042;29;20217;-83
2023/08/04 00:43:08;;;;;;;5.82;2.45;;;15.50;99.90;;;;;;4957173;29;20210;-84
2023/08/04 00:45:35;;;;;;;3.33;2.15;;;15.50;99.90;;;;;;4940472;29;20570;-84
2023/08/04 00:48:01;;;;;;;4.03;2.33;;;15.50;99.90;;;;;;4940416;29;20179;-84
2023/08/04 00:50:29;;;;;;;3.67;2.17;;;15.60;99.90;;;;;;4940864;29;20179;-84
2023/08/04 00:52:55;;;;;;;9.88;2.95;;;15.60;99.90;;;;;;4957166;28;20238;-85
2023/08/04 00:55:22;;;;;;;3.97;2.08;;;15.60;99.90;;;;;;4955363;28;20219;-84
2023/08/04 00:57:48;;;;;;;2.45;1.77;;;15.60;99.90;;;;;;4957319;29;20175;-88
2023/08/04 01:00:14;;;;;;;3.33;2.50;;;15.60;99.90;;;;;;4940286;29;20246;-85
2023/08/04 01:02:40;;;;;;;3.72;2.17;;;15.70;99.90;;;;;;4956530;29;20570;-85
2023/08/04 01:05:06;;;;;;;5.15;2.10;;;15.70;99.90;;;;;;4957525;29;20302;-85
2023/08/04 01:07:39;;;;;;;2.85;2.25;;;15.70;99.90;;;;;;4966098;29;20226;-84
2023/08/04 01:10:15;;;;;;;4.15;2.60;;;15.70;99.90;;;;;;4942574;29;20179;-85
2023/08/04 01:12:48;;;;;;;3.67;2.15;;;15.60;99.90;;;;;;4957344;29;20194;-85
2023/08/04 01:15:15;;;;;;;3.63;2.13;;;15.60;99.90;;;;;;4940356;29;20187;-84
2023/08/04 01:17:41;;;;;;;2.35;2.03;;;15.80;99.90;;;;;;4956039;29;20184;-85
2023/08/04 01:20:07;;;;;;;6.25;1.85;;;15.70;99.90;;;;;;4940167;29;20239;-84
2023/08/04 01:22:36;;;;;;;5.28;1.98;;;15.80;99.90;;;;;;4924176;29;20180;-84
2023/08/04 01:25:02;;;;;;;4.47;2.05;;;15.70;99.90;;;;;;4956724;29;20639;-85
2023/08/04 01:27:40;;;;;;;4.53;2.00;;;15.80;99.90;;;;;;4957155;29;20230;-84
2023/08/04 01:30:10;;;;;;;2.83;2.13;;;15.90;99.90;;;;;;4939744;29;20258;-84
2023/08/04 01:32:36;;;;;;;4.50;2.05;;;16.00;99.90;;;;;;4957051;29;20259;-85
2023/08/04 01:35:03;;;;;;;3.60;1.90;;;16.10;99.90;;;;;;4956956;29;20270;-84
2023/08/04 01:37:29;;;;;;;5.50;2.08;;;16.00;99.90;;;;;;4957363;29;20258;-85
2023/08/04 01:39:54;;;;;;;3.15;2.28;;;16.00;99.90;;;;;;4957296;29;20270;-86
2023/08/04 01:42:20;;;;;;;5.93;2.00;;;15.90;99.90;;;;;;4956072;29;20249;-85
2023/08/04 01:44:46;;;;;;;5.78;2.33;;;16.00;99.90;;;;;;4956768;29;20606;-85
2023/08/04 01:47:11;;;;;;;3.67;2.30;;;16.00;99.90;;;;;;4939483;29;20183;-85
2023/08/04 01:49:37;;;;;;;4.45;2.10;;;15.90;99.90;;;;;;4955404;29;20187;-85
2023/08/04 01:52:03;;;;;;;3.53;2.20;;;15.90;99.90;;;;;;4924492;29;20227;-85
2023/08/04 01:54:29;;;;;;;3.75;2.30;;;15.90;99.90;;;;;;4955450;29;20655;-85
2023/08/04 01:56:54;;;;;;;3.80;2.00;;;15.90;99.90;;;;;;4955356;29;20183;-85
2023/08/04 01:59:20;;;;;;;4.43;2.53;;;16.00;99.90;;;;;;4923836;29;20607;-85
2023/08/04 02:01:45;;;;;;;3.00;2.00;;;16.00;99.90;;;;;;4939097;29;20584;-85
2023/08/04 02:04:11;;;;;;;2.70;1.85;;;16.10;99.90;;;;;;4955404;29;20676;-85
2023/08/04 02:06:37;;;;;;;4.32;2.03;;;16.00;99.90;;;;;;4958006;28;20596;-85
2023/08/04 02:09:03;;;;;;;2.67;1.90;;;16.00;99.90;;;;;;4958404;28;20233;-85
2023/08/04 02:11:30;;;;;;;2.92;2.28;;;15.90;99.90;;;;;;4980192;28;20202;-83
2023/08/04 02:13:57;;;;;;;2.85;1.67;;;16.00;99.90;;;;;;4977408;28;20171;-83
2023/08/04 02:16:24;;;;;;;3.58;1.98;;;16.00;99.90;;;;;;4975128;28;20249;-85
2023/08/04 02:18:49;;;;;;;5.30;2.20;;;16.00;99.90;;;;;;4942446;28;20178;-86
2023/08/04 02:21:15;;;;;;;4.43;2.33;;;16.00;99.90;;;;;;4958035;28;20190;-85
2023/08/04 02:23:40;;;;;;;3.95;2.05;;;16.00;99.90;;;;;;4975347;28;20190;-85
2023/08/04 02:26:06;;;;;;;10.20;2.38;;;16.00;99.90;;;;;;4941879;28;20245;-84
2023/08/04 02:28:32;;;;;;;2.72;1.90;;;16.00;99.90;;;;;;4926298;28;20273;-85
2023/08/04 02:31:01;;;;;;;7.35;3.40;;;16.00;99.90;;;;;;4957937;28;20544;-85
2023/08/04 02:33:26;;;;;;;3.20;2.00;;;15.90;99.90;;;;;;4942425;28;20174;-85
2023/08/04 02:36:02;;;;;;;3.42;2.10;;;15.80;99.90;;;;;;4958087;28;20553;-85
2023/08/04 02:38:28;;;;;;;2.35;2.03;;;15.90;99.90;;;;;;4957725;28;20178;-85
2023/08/04 02:40:53;;;;;;;3.70;2.10;;;15.90;99.90;;;;;;4975214;28;20181;-85
2023/08/04 02:43:19;;;;;;;5.05;1.80;;;16.00;99.90;;;;;;4941655;28;20586;-85
2023/08/04 02:45:50;;;;;;;2.92;1.83;;;15.90;99.90;;;;;;4975037;28;20211;-84
2023/08/04 02:48:16;;;;;;;5.93;2.13;;;15.90;99.90;;;;;;4974681;28;20191;-84
2023/08/04 02:50:42;;;;;;;3.35;2.13;;;15.90;99.90;;;;;;4926145;28;20279;-83
2023/08/04 02:53:07;;;;;;;7.20;2.63;;;15.90;99.90;;;;;;4974791;28;20613;-83
2023/08/04 02:55:33;;;;;;;4.03;2.30;;;15.90;99.90;;;;;;4974831;28;20190;-83
2023/08/04 02:57:59;;;;;;;6.88;2.22;;;15.90;99.90;;;;;;4974564;28;20182;-84
2023/08/04 03:00:25;;;;;;;3.45;2.05;;;15.90;99.90;;;;;;4941567;28;20193;-85
2023/08/04 03:02:51;;;;;;;3.22;1.80;;;15.90;99.90;;;;;;4975016;28;20179;-84
2023/08/04 03:05:17;;;;;;;2.67;2.05;;;15.90;99.90;;;;;;4974364;28;20215;-84
2023/08/04 03:07:43;;;;;;;6.53;2.97;;;15.90;99.90;;;;;;4957830;28;20182;-84
2023/08/04 03:10:08;;;;;;;3.47;1.98;;;15.90;99.90;;;;;;4957400;28;20520;-85
2023/08/04 03:12:34;;;;;;;4.50;1.95;;;15.90;99.90;;;;;;4958073;28;20182;-84
2023/08/04 03:15:00;;;;;;;4.18;1.77;;;16.00;99.90;;;;;;4957617;28;20198;-84
2023/08/04 03:17:25;;;;;;;4.00;2.10;;;16.10;99.90;;;;;;4957970;28;20183;-84
2023/08/04 03:19:51;;;;;;;5.75;2.13;;;16.10;99.90;;;;;;4978550;28;20261;-84
2023/08/04 03:22:17;;;;;;;3.45;1.92;;;16.10;99.90;;;;;;4979066;28;20236;-84
2023/08/04 03:24:42;;;;;;;8.80;2.40;;;16.10;99.90;;;;;;4961786;28;20246;-84
2023/08/04 03:27:08;;;;;;;4.13;2.15;;;16.10;99.90;;;;;;4978725;28;20214;-87
2023/08/04 03:29:34;;;;;;;4.43;2.28;;;16.00;99.90;;;;;;4961761;28;20241;-84
2023/08/04 03:31:59;;;;;;;4.07;2.17;;;16.10;99.90;;;;;;4963696;28;20194;-85
2023/08/04 03:34:26;;;;;;;3.22;1.90;;;16.00;99.90;;;;;;4975417;28;20555;-85
2023/08/04 03:36:52;;;;;;;5.70;1.95;;;16.00;99.90;;;;;;4977679;28;20229;-85
2023/08/04 03:39:17;;;;;;;3.33;2.47;;;16.00;99.90;;;;;;4962066;28;20217;-86
2023/08/04 03:41:43;;;;;;;1.65;1.52;;;16.10;99.90;;;;;;4968402;28;20572;-85
2023/08/04 03:44:09;;;;;;;2.60;1.77;;;16.20;99.90;;;;;;4956836;29;20551;-85
2023/08/04 03:46:34;;;;;;;3.75;2.08;;;16.20;99.90;;;;;;4957659;29;20536;-84
2023/08/04 03:49:00;;;;;;;4.75;2.58;;;16.10;99.90;;;;;;4974837;28;20191;-84
2023/08/04 03:51:25;;;;;;;2.78;1.75;;;16.10;99.90;;;;;;4957921;28;20198;-85
2023/08/04 03:53:51;;;;;;;4.53;2.20;;;16.20;99.90;;;;;;4957416;28;20721;-83
2023/08/04 03:56:17;;;;;;;3.70;1.77;;;16.20;99.90;;;;;;4976211;28;20194;-85
2023/08/04 03:58:42;;;;;;;2.45;1.85;;;16.20;99.90;;;;;;4977162;28;20190;-86
2023/08/04 04:01:08;;;;;;;2.90;1.80;;;16.20;99.90;;;;;;4964285;28;20191;-86
2023/08/04 04:03:34;;;;;;;4.07;2.10;;;16.20;99.90;;;;;;4960965;28;20198;-87
2023/08/04 04:06:00;;;;;;;3.63;2.28;;;16.30;99.90;;;;;;4976112;28;20202;-88
2023/08/04 04:08:26;;;;;;;3.75;1.92;;;16.30;99.90;;;;;;4975741;28;20245;-88
2023/08/04 04:10:51;;;;;;;5.03;1.88;;;16.40;99.90;;;;;;4959936;28;20193;-87
2023/08/04 04:13:17;;;;;;;6.40;1.90;;;16.50;99.90;;;;;;4975956;28;20199;-88
2023/08/04 04:15:42;;;;;;;2.28;1.60;;;16.50;99.90;;;;;;4976267;28;20194;-86
2023/08/04 04:18:08;;;;;;;4.00;1.67;;;16.60;99.90;;;;;;4977431;28;20221;-87
2023/08/04 04:20:34;;;;;;;6.50;2.35;;;16.60;99.90;;;;;;4969197;28;20607;-87
2023/08/04 04:22:59;;;;;;;3.78;2.33;;;16.60;99.90;;;;;;4962649;28;20648;-86
2023/08/04 04:25:25;;;;;;;2.17;1.88;;;16.60;99.90;;;;;;4983768;28;20205;-87
2023/08/04 04:27:50;;;;;;;3.53;2.10;;;16.60;99.90;;;;;;4963919;28;20186;-87
2023/08/04 04:30:16;;;;;;;3.47;1.95;;;16.70;99.90;;;;;;4967048;28;20687;-90
2023/08/04 04:32:42;;;;;;;3.22;2.38;;;16.60;99.90;;;;;;4967902;28;20270;-86
2023/08/04 04:35:08;;;;;;;1.98;1.60;;;16.70;99.90;;;;;;4959795;28;20193;-86
2023/08/04 04:37:33;;;;;;;3.40;2.03;;;16.80;99.90;;;;;;4939437;29;20225;-87
2023/08/04 04:39:59;;;;;;;2.53;1.85;;;16.80;99.90;;;;;;4973375;28;20190;-86
2023/08/04 04:42:24;;;;;;;6.20;3.22;;;16.80;99.90;;;;;;4975180;28;20187;-86
2023/08/04 04:44:50;;;;;;;3.33;1.67;;;16.80;99.90;;;;;;4975385;28;20202;-87
2023/08/04 04:47:16;;;;;;;6.38;2.13;;;16.80;99.90;;;;;;4959341;28;20205;-88
2023/08/04 04:49:41;;;;;;;3.00;1.60;;;16.80;99.90;;;;;;4945739;28;20545;-87
2023/08/04 04:52:09;;;;;;;4.63;1.92;;;16.80;99.90;;;;;;4985545;28;20312;-85
2023/08/04 04:54:35;;;;;;;3.42;1.80;;;16.90;99.90;;;;;;4976272;28;20182;-85
2023/08/04 04:57:00;;;;;;;4.85;2.15;;;16.90;99.90;;;;;;4961665;28;20208;-86
2023/08/04 04:59:26;;;;;;;4.72;2.08;;;17.00;99.90;;;;;;4962205;28;20191;-89
2023/08/04 05:01:52;;;;;;;3.03;1.80;;;17.00;99.90;;;;;;4950676;29;20188;-89
2023/08/04 05:04:17;;;;;;;3.10;2.00;;;17.00;99.90;;;;;;4957562;29;20218;-89
2023/08/04 05:06:43;;;;;;;2.75;1.90;;;17.10;99.90;;;;;;4940342;29;20179;-89
2023/08/04 05:09:08;;;;;;;4.90;1.85;;;17.20;99.90;;;;;;4941357;29;20183;-86
2023/08/04 05:11:34;;;;;;;3.58;2.20;;;17.20;99.90;;;;;;4941306;29;20632;-87
2023/08/04 05:14:00;;;;;;;4.88;2.22;;;17.20;99.90;;;;;;4957380;29;20183;-87
2023/08/04 05:16:27;;;;;;;4.05;1.98;;;17.20;99.90;;;;;;4957361;29;20183;-88
2023/08/04 05:18:52;;;;;;;3.28;2.17;;;17.20;99.90;;;;;;4965076;29;20579;-87
2023/08/04 05:21:18;;;;;;;2.90;2.00;;;17.20;99.90;;;;;;4949716;29;20223;-87
2023/08/04 05:23:44;;;;;;;7.57;2.45;;;17.20;99.90;;;;;;4965116;29;20179;-88
2023/08/04 05:26:09;;;;;;;5.13;2.00;;;17.40;99.90;;;;;;4963617;29;20266;-89
2023/08/04 05:28:35;;;;;;;3.35;1.77;;;17.50;99.90;;;;;;4973123;28;20159;-93
2023/08/04 05:31:02;;;;;;;5.40;2.35;;;17.50;99.90;;;;;;4980477;28;20194;-87
2023/08/04 05:33:30;;;;;;;3.35;1.85;;;17.40;99.90;;;;;;4980345;28;20183;-88
2023/08/04 05:35:56;;;;;;;3.80;2.08;;;17.40;99.90;;;;;;4980764;28;20155;-87
2023/08/04 05:38:22;;;;;;;4.90;2.20;;;17.50;99.90;;;;;;4977870;28;20175;-87
2023/08/04 05:40:49;;;;;;;4.88;2.33;;;17.50;99.90;;;;;;4960710;28;20182;-86
2023/08/04 05:43:15;;;;;;;5.28;1.95;;;17.50;99.90;;;;;;4960571;29;20237;-87
2023/08/04 05:45:44;;;;;;;4.15;2.38;;;17.50;99.90;;;;;;4976026;28;20242;-88
2023/08/04 05:48:10;;;;;;;3.35;2.72;;;17.50;99.90;;;;;;4980540;28;20174;-87
2023/08/04 05:50:36;;;;;;;3.00;2.35;;;17.50;99.90;;;;;;4963677;28;20178;-89
2023/08/04 05:53:02;;;;;;;4.80;2.05;;;17.50;99.90;;;;;;4975095;28;20243;-87
2023/08/04 05:55:28;;;;;;;5.07;2.08;;;17.60;99.90;;;;;;4956324;29;20214;-92
2023/08/04 05:57:55;;;;;;;4.32;2.28;;;17.70;99.90;;;;;;4958511;29;20590;-87
2023/08/04 06:00:21;;;;;;;3.58;2.00;;;17.90;99.90;;;;;;4956651;29;20185;-87
2023/08/04 06:02:47;;;;;;;7.63;2.30;;;18.00;99.90;;;;;;4956728;29;20527;-88
2023/08/04 06:05:12;;;;;;;3.63;2.25;;;18.30;99.90;;;;;;4939043;29;20611;-88
2023/08/04 06:07:39;;;;;;;3.03;2.17;;;18.50;99.90;;;;;;4947019;29;20567;-88
2023/08/04 06:10:06;;;;;;;6.07;2.30;;;18.60;99.90;;;;;;4954859;28;20175;-88
2023/08/04 06:12:32;;;;;;;5.47;2.15;;;18.90;99.90;;;;;;4956002;29;20202;-88
2023/08/04 06:15:00;;;;;;;3.80;1.80;;;19.20;99.90;;;;;;4950073;29;20186;-88
2023/08/04 06:17:26;;;;;;;4.40;1.70;;;19.20;99.90;;;;;;4939537;29;20631;-89
2023/08/04 06:19:52;;;;;;;2.80;1.50;;;19.20;99.90;;;;;;4955178;29;20278;-89
2023/08/04 06:22:18;;;;;;;3.38;1.55;;;19.20;99.90;;;;;;4955215;29;20194;-88
2023/08/04 06:24:43;;;;;;;2.88;1.85;;;19.10;99.90;;;;;;4938643;29;20203;-88
2023/08/04 06:27:09;;;;;;;5.43;1.67;;;19.00;99.90;;;;;;4938753;29;20188;-88
2023/08/04 06:29:35;;;;;;;5.75;2.17;;;19.00;99.90;;;;;;4956429;28;20707;-89
2023/08/04 06:32:01;;;;;;;2.88;1.60;;;18.90;99.90;;;;;;4958291;28;20538;-87
2023/08/04 06:34:29;;;;;;;3.65;1.77;;;18.90;99.90;;;;;;4958214;28;20178;-89
2023/08/04 06:36:55;;;;;;;3.38;1.52;;;18.90;99.90;;;;;;4949267;28;20194;-88
2023/08/04 06:39:22;;;;;;;3.70;1.67;;;17.50;99.90;;;;;;4973959;28;20658;-88
2023/08/04 06:45:10;;;;;;;5.00;1.77;;;19.20;99.90;;;;;;4951949;29;20235;-89
2023/08/04 06:47:36;;;;;;;5.32;2.45;;;19.20;99.90;;;;;;4954240;29;20249;-90
2023/08/04 06:50:03;;;;;;;3.15;2.08;;;19.30;99.90;;;;;;4907443;29;20187;-89
2023/08/04 06:56:10;;;;;;;6.00;2.42;;;19.50;99.90;;;;;;4936834;29;20220;-88
2023/08/04 06:58:35;;;;;;;5.88;1.30;;;19.70;99.90;;;;;;4919424;29;20178;-88
2023/08/04 07:01:01;;;;;;;4.53;1.33;;;19.80;99.90;;;;;;4919875;29;20259;-89
2023/08/04 07:03:29;;;;;;;5.10;1.90;;;19.90;99.90;;;;;;4903824;29;20187;-90
2023/08/04 07:05:54;;;;;;;2.53;1.30;;;20.10;99.90;;;;;;4917960;29;20262;-89
2023/08/04 07:08:20;;;;;;;3.30;1.40;;;20.10;99.90;;;;;;4922721;29;20603;-90
2023/08/04 07:10:46;;;;;;;2.45;1.48;;;20.00;99.90;;;;;;4922592;29;20584;-89
2023/08/04 07:13:12;;;;;;;2.55;1.40;;;20.00;99.90;;;;;;4915015;29;20180;-90
2023/08/04 07:15:40;;;;;;;3.35;1.48;;;20.30;99.90;;;;;;4921854;29;20617;-89
2023/08/04 07:18:05;;;;;;;5.18;1.88;;;20.20;99.90;;;;;;4925350;29;20203;-89
2023/08/04 07:20:33;;;;;;;2.63;1.52;;;20.30;99.90;;;;;;4919386;29;20222;-89
2023/08/04 07:22:59;;;;;;;4.35;2.00;;;20.50;99.90;;;;;;4925998;29;20187;-89
2023/08/04 07:25:25;;;;;;;5.35;1.70;;;20.90;99.90;;;;;;4938605;29;20297;-89
2023/08/04 07:27:54;;;;;;;2.47;1.60;;;21.10;99.90;;;;;;4943528;29;20171;-88
2023/08/04 07:30:20;;;;;;;4.30;1.77;;;20.90;99.90;;;;;;4939192;29;20637;-89
2023/08/04 07:32:55;;;;;;;4.30;1.67;;;21.50;99.90;;;;;;4910789;29;20215;-89
2023/08/04 07:35:25;;;;;;;4.60;1.40;;;20.70;99.90;;;;;;4941985;29;20197;-88
2023/08/04 07:37:53;;;;;;;3.30;1.20;;;21.40;99.90;;;;;;4963745;29;20195;-91
2023/08/04 07:40:22;;;;;;;2.83;1.40;;;20.30;99.90;;;;;;4931720;29;20251;-94
2023/08/04 07:42:48;;;;;;;3.92;2.10;;;21.40;99.90;;;;;;4945373;29;20176;-92
2023/08/04 07:45:17;;;;;;;3.25;1.80;;;21.30;99.90;;;;;;4937694;29;20218;-92
2023/08/04 07:47:46;;;;;;;4.28;1.60;;;21.50;99.90;;;;;;4916990;29;20194;-91
2023/08/04 07:50:12;;;;;;;3.15;1.52;;;21.20;99.90;;;;;;4924548;29;20176;-93
2023/08/04 07:52:38;;;;;;;4.57;1.45;;;21.50;99.90;;;;;;4936296;28;20762;-92
2023/08/04 07:55:04;;;;;;;4.43;1.55;;;21.30;99.90;;;;;;4948520;28;20496;-88
2023/08/04 07:57:33;;;;;;;2.92;1.50;;;21.10;99.90;;;;;;4929729;28;20195;-89
2023/08/04 08:00:05;;;;;;;2.33;1.50;;;21.00;99.90;;;;;;4968529;28;20254;-87
2023/08/04 08:02:30;;;;;;;2.60;1.45;;;21.00;99.90;;;;;;4963381;28;20194;-89
2023/08/04 08:04:56;;;;;;;2.58;1.38;;;21.20;99.90;;;;;;4971847;28;20214;-88
2023/08/04 08:07:22;;;;;;;2.42;1.25;;;21.00;99.90;;;;;;4962101;28;20206;-87
2023/08/04 08:09:50;;;;;;;3.80;1.50;;;20.90;99.90;;;;;;4973105;28;20577;-90
2023/08/04 08:12:15;;;;;;;5.47;1.60;;;21.00;99.90;;;;;;4964635;28;20265;-90
2023/08/04 08:14:41;;;;;;;3.75;1.70;;;21.10;99.90;;;;;;4940126;29;20279;-88
2023/08/04 08:17:09;;;;;;;2.60;1.52;;;21.20;99.90;;;;;;4960958;28;20201;-87
2023/08/04 08:19:46;;;;;;;2.38;1.17;;;21.30;99.90;;;;;;4964395;28;20224;-88
2023/08/04 08:22:12;;;;;;;2.75;1.20;;;21.50;99.90;;;;;;4957805;28;20175;-89
2023/08/04 08:24:41;;;;;;;4.00;1.35;;;21.80;99.90;;;;;;4943300;29;20552;-88
2023/08/04 08:27:08;;;;;;;1.80;1.08;;;19.80;99.90;;;;;;4958166;29;20287;-91
2023/08/04 08:29:35;;;;;;;4.43;1.23;;;21.50;99.90;;;;;;4942274;28;20199;-89
2023/08/04 08:32:04;;;;;;;1.85;1.10;;;22.60;99.90;;;;;;4971981;28;20179;-90
2023/08/04 08:34:29;;;;;;;1.45;1.15;;;21.60;99.90;;;;;;4973347;28;20190;-91
2023/08/04 08:36:55;;;;;;;1.75;1.17;;;21.60;99.90;;;;;;4983054;28;20175;-89
2023/08/04 08:39:21;;;;;;;2.15;0.98;;;21.60;99.90;;;;;;4976833;28;20178;-89
2023/08/04 08:41:47;;;;;;;4.70;1.42;;;21.60;99.90;;;;;;4977902;28;20177;-90
2023/08/04 08:44:12;;;;;;;3.10;1.50;;;21.70;99.90;;;;;;4960948;28;20186;-89
2023/08/04 08:46:38;;;;;;;2.50;1.30;;;21.50;99.90;;;;;;4976386;28;20201;-88
2023/08/04 08:49:05;;;;;;;1.42;1.30;;;21.60;99.90;;;;;;4977573;28;20213;-89
2023/08/04 08:51:33;;;;;;;3.28;1.30;;;21.40;99.90;;;;;;4979805;28;20201;-89
2023/08/04 08:54:02;;;;;;;1.95;1.52;;;21.40;99.90;;;;;;4980938;28;20713;-89
2023/08/04 08:56:28;;;;;;;3.53;1.65;;;20.60;99.90;;;;;;4982442;28;20178;-89
2023/08/04 08:58:55;;;;;;;2.45;1.30;;;21.60;99.90;;;;;;4944620;28;20186;-89
2023/08/04 09:01:21;;;;;;;3.47;1.48;;;21.40;99.90;;;;;;4960174;28;20202;-89
2023/08/04 09:03:49;;;;;;;3.45;1.40;;;21.30;99.90;;;;;;4968999;28;20217;-91
2023/08/04 09:06:16;;;;;;;2.08;1.20;;;21.20;99.90;;;;;;4975680;28;20207;-90
2023/08/04 09:08:42;;;;;;;3.03;1.17;;;21.40;99.90;;;;;;4975903;28;20198;-90
2023/08/04 09:11:08;;;;;;;4.30;1.30;;;21.20;99.90;;;;;;4959369;28;20542;-89
2023/08/04 09:13:40;;;;;;;2.95;1.65;;;21.40;99.90;;;;;;4974880;28;20214;-88
2023/08/04 09:16:08;;;;;;;2.42;1.40;;;21.40;99.90;;;;;;4974887;28;20640;-87
2023/08/04 09:18:38;;;;;;;1.35;1.23;;;21.20;99.90;;;;;;4977228;28;20270;-88
2023/08/04 09:21:07;;;;;;;5.43;1.73;;;21.30;99.90;;;;;;4970907;28;20580;-88
2023/08/04 09:23:36;;;;;;;5.43;1.60;;;21.10;99.90;;;;;;4963676;28;20195;-88
2023/08/04 09:26:02;;;;;;;1.83;1.33;;;21.10;99.90;;;;;;4955725;29;20213;-88
2023/08/04 09:28:28;;;;;;;8.35;2.10;;;21.20;99.90;;;;;;4957145;29;20270;-89
2023/08/04 09:31:07;;;;;;;7.25;1.70;;;21.30;99.90;;;;;;4969467;28;20182;-88
2023/08/04 09:33:34;;;;;;;2.95;1.45;;;21.30;99.90;;;;;;4966687;28;20206;-89
2023/08/04 09:36:08;;;;;;;1.70;1.30;;;21.40;99.90;;;;;;4974160;28;20320;-88
2023/08/04 09:38:38;;;;;;;1.83;1.10;;;21.50;99.90;;;;;;4975883;28;20187;-88
2023/08/04 09:41:14;;;;;;;2.83;1.60;;;21.90;99.90;;;;;;4975005;28;20265;-88
2023/08/04 09:43:50;;;;;;;3.97;1.40;;;21.50;99.90;;;;;;4951592;28;20190;-89
2023/08/04 09:46:16;;;;;;;1.55;1.15;;;21.60;99.90;;;;;;4958963;28;20253;-89
2023/08/04 09:48:42;;;;;;;3.00;1.30;;;21.70;99.90;;;;;;4967151;28;20594;-89
2023/08/04 09:51:09;;;;;;;3.80;1.75;;;21.70;99.90;;;;;;4974795;28;20187;-90
2023/08/04 09:53:45;;;;;;;6.70;2.05;;;21.60;99.90;;;;;;4974708;28;20242;-90
2023/08/04 09:56:13;;;;;;;2.40;1.35;;;21.70;99.90;;;;;;4975403;28;20186;-91
2023/08/04 09:58:42;;;;;;;3.30;1.50;;;21.70;99.90;;;;;;4959473;28;20183;-89
2023/08/04 10:01:11;;;;;;;3.83;1.48;;;21.90;99.90;;;;;;4971973;28;20175;-92
2023/08/04 10:03:41;;;;;;;2.05;1.40;;;22.10;99.90;;;;;;4980032;28;20188;-93
2023/08/04 10:06:09;;;;;;;3.42;1.30;;;22.30;99.90;;;;;;4973254;28;20249;-91
2023/08/04 10:08:39;;;;;;;2.72;1.33;;;22.50;99.90;;;;;;4977359;28;20708;-90
2023/08/04 10:11:06;;;;;;;3.20;1.42;;;22.70;99.90;;;;;;4975345;28;20182;-90
2023/08/04 10:13:46;;;;;;;1.98;1.20;;;22.40;99.90;;;;;;4975274;28;20245;-90
2023/08/04 10:16:14;;;;;;;3.05;1.58;;;23.00;99.90;;;;;;4975166;28;20182;-90
2023/08/04 10:18:55;;;;;;;7.00;1.45;;;22.60;99.90;;;;;;4974901;28;20186;-90
2023/08/04 10:21:32;;;;;;;2.30;1.20;;;22.60;99.90;;;;;;4975334;28;20185;-91
2023/08/04 10:24:04;;;;;;;6.20;1.40;;;22.60;99.90;;;;;;4976674;28;20181;-93
2023/08/04 10:26:37;;;;;;;3.28;1.48;;;22.50;99.90;;;;;;4974561;28;20202;-91
2023/08/04 10:29:10;;;;;;;2.10;1.30;;;22.40;99.90;;;;;;4974267;28;20178;-90
2023/08/04 10:31:55;;;;;;;2.45;1.10;;;22.60;99.90;;;;;;4974265;28;20273;-91
2023/08/04 10:34:37;;;;;;;2.58;1.13;;;20.50;99.90;;;;;;4963782;28;20182;-93
2023/08/04 10:37:14;;;;;;;1.73;1.30;;;22.60;99.90;;;;;;4971131;28;20167;-90
2023/08/04 10:39:46;;;;;;;12.05;2.05;;;22.70;99.90;;;;;;4971872;28;20546;-89
2023/08/04 10:42:12;;;;;;;5.05;1.98;;;22.80;99.90;;;;;;4955156;29;20186;-93
2023/08/04 10:44:59;;;;;;;5.10;1.33;;;22.30;99.90;;;;;;4972000;28;20305;-93
2023/08/04 10:47:30;;;;;;;2.63;1.27;;;22.90;99.90;;;;;;4969565;28;20178;-92
2023/08/04 10:49:58;;;;;;;3.85;1.48;;;23.10;99.90;;;;;;4960607;28;20257;-91
2023/08/04 10:52:24;;;;;;;6.15;1.40;;;23.00;99.90;;;;;;4970096;28;20178;-90
2023/08/04 10:54:51;;;;;;;2.85;1.08;;;23.00;99.90;;;;;;4964714;28;20844;-90
2023/08/04 10:57:24;;;;;;;4.47;1.45;;;23.00;99.90;;;;;;4956545;28;20253;-90
2023/08/04 10:59:50;;;;;;;2.80;1.40;;;22.90;99.90;;;;;;4963125;28;20221;-91
2023/08/04 11:02:23;;;;;;;4.18;1.48;;;23.10;99.90;;;;;;4964182;28;20704;-90
2023/08/04 11:04:55;;;;;;;3.10;1.33;;;23.70;99.90;;;;;;4949978;28;20222;-92
2023/08/04 11:07:23;;;;;;;5.97;1.45;;;23.00;99.90;;;;;;4957520;28;20178;-95
2023/08/04 11:09:50;;;;;;;1.85;1.50;;;23.00;99.90;;;;;;4971501;28;20639;-92
2023/08/04 11:12:16;;;;;;;2.40;1.70;;;23.30;99.90;;;;;;4981359;28;20175;-93
2023/08/04 11:14:43;;;;;;;3.58;1.70;;;23.20;99.90;;;;;;4979289;28;20206;-91
2023/08/04 11:17:13;;;;;;;2.25;1.40;;;23.30;99.90;;;;;;4967417;28;20533;-91
2023/08/04 11:19:42;;;;;;;2.10;1.42;;;23.00;99.90;;;;;;4969696;28;20702;-94
2023/08/04 11:22:09;;;;;;;3.35;1.92;;;23.20;99.90;;;;;;4973701;28;20242;-91
2023/08/04 11:24:35;;;;;;;3.40;1.75;;;23.00;99.90;;;;;;4970816;28;20215;-89
2023/08/04 11:27:01;;;;;;;2.92;1.73;;;22.70;99.90;;;;;;4962584;28;20180;-90
2023/08/04 11:29:26;;;;;;;5.90;1.90;;;22.80;99.90;;;;;;4945036;29;20184;-91
2023/08/04 11:31:53;;;;;;;3.17;2.05;;;21.60;99.90;;;;;;4960952;29;20186;-90
2023/08/04 11:34:19;;;;;;;2.83;1.63;;;22.90;99.90;;;;;;4969519;28;20190;-89
2023/08/04 11:36:45;;;;;;;3.95;1.63;;;22.90;99.90;;;;;;4977381;28;20185;-91
2023/08/04 11:39:13;;;;;;;1.98;1.67;;;23.30;99.90;;;;;;4975012;28;20190;-90
2023/08/04 11:41:41;;;;;;;3.72;1.38;;;23.10;99.90;;;;;;4958560;28;20660;-91
2023/08/04 11:44:09;;;;;;;3.97;1.52;;;23.20;99.90;;;;;;4978709;28;20175;-91
2023/08/04 11:46:35;;;;;;;3.15;1.73;;;23.30;99.90;;;;;;4945395;28;20198;-93
2023/08/04 11:49:06;;;;;;;3.97;1.65;;;23.60;99.90;;;;;;4973001;28;20190;-92
2023/08/04 11:51:32;;;;;;;3.83;1.45;;;23.40;99.90;;;;;;4977333;28;20175;-92
2023/08/04 11:53:58;;;;;;;3.15;1.50;;;23.30;99.90;;;;;;4961076;28;20230;-91
2023/08/04 11:56:24;;;;;;;3.20;1.90;;;24.60;99.90;;;;;;4977971;28;20245;-92
2023/08/04 11:58:55;;;;;;;8.57;2.30;;;23.20;99.90;;;;;;4974047;28;20179;-90
2023/08/04 12:01:28;;;;;;;2.35;1.58;;;23.60;99.90;;;;;;4964324;28;20175;-93
2023/08/04 12:03:54;;;;;;;4.07;1.40;;;23.30;99.90;;;;;;4964445;28;20265;-92
2023/08/04 12:06:23;;;;;;;2.55;1.23;;;23.30;99.90;;;;;;4945980;28;20324;-89
2023/08/04 12:09:09;;;;;;;3.50;1.55;;;23.40;99.90;;;;;;4961980;28;20179;-90
2023/08/04 12:11:49;;;;;;;2.85;1.73;;;23.50;99.90;;;;;;4972632;28;20191;-91
2023/08/04 12:14:16;;;;;;;2.45;1.30;;;26.10;99.90;;;;;;4959805;29;20551;-89
2023/08/04 12:17:01;;;;;;;3.72;2.13;;;22.90;99.90;;;;;;4960188;29;20176;-91
2023/08/04 12:19:32;;;;;;;8.13;1.35;;;24.10;99.90;;;;;;4968719;28;20667;-91
2023/08/04 12:22:00;;;;;;;4.10;1.52;;;24.00;99.90;;;;;;4978560;28;20170;-90
2023/08/04 12:24:30;;;;;;;5.45;1.75;;;23.80;99.90;;;;;;4978057;28;20244;-90
2023/08/04 12:26:56;;;;;;;2.65;1.92;;;23.90;99.90;;;;;;4987039;28;20216;-92
2023/08/04 12:29:22;;;;;;;3.30;1.83;;;23.70;99.90;;;;;;5001476;28;20173;-95
2023/08/04 12:31:51;;;;;;;5.43;2.70;;;23.80;99.90;;;;;;5001099;28;20159;-91
2023/08/04 12:34:20;;;;;;;4.60;1.83;;;23.80;99.90;;;;;;4994504;28;20227;-95
2023/08/04 12:36:46;;;;;;;6.82;1.58;;;24.50;99.90;;;;;;4994603;28;20167;-94
2023/08/04 12:39:13;;;;;;;1.42;1.33;;;24.10;99.90;;;;;;4981417;28;20219;-91
2023/08/04 12:41:39;;;;;;;2.60;1.52;;;24.30;99.90;;;;;;4965688;28;20167;-94
2023/08/04 12:44:05;;;;;;;2.22;1.13;;;24.70;99.90;;;;;;4984770;28;20210;-95
2023/08/04 12:46:31;;;;;;;2.65;1.70;;;24.80;99.90;;;;;;4987377;28;20188;-92
2023/08/04 12:48:57;;;;;;;2.30;1.48;;;25.10;99.90;;;;;;4976032;28;20159;-93
2023/08/04 12:51:26;;;;;;;8.88;4.70;;;24.80;99.90;;;;;;4999460;28;20177;-92
2023/08/04 12:56:28;;;;;;;2.85;1.60;;;24.80;98.90;;;;;;4999236;28;20222;-95
2023/08/04 13:02:01;;;;;;;3.22;1.30;;;23.20;99.90;;;;;;5212766;23;20241;-95